sensor_id;sensor_type;location;lat;lon;timestamp;pressure;altitude;pressure_sealevel;temperature;humidity
84578;BME280;74803;44.756;19.218;2024-02-16T00:00:12;101255.09;;;6.61;64.19
84578;BME280;74803;44.756;19.218;2024-02-16T00:02:39;101255.78;;;6.52;64.75
84578;BME280;74803;44.756;19.218;2024-02-16T00:05:06;101259.06;;;6.43;65.24
84578;BME280;74803;44.756;19.218;2024-02-16T00:07:33;101250.63;;;6.52;64.93
84578;BME280;74803;44.756;19.218;2024-02-16T00:09:58;101249.22;;;6.48;64.97
84578;BME280;74803;44.756;19.218;2024-02-16T00:12:23;101255.16;;;6.37;65.53
84578;BME280;74803;44.756;19.218;2024-02-16T00:14:49;101246.78;;;6.23;65.87
84578;BME280;74803;44.756;19.218;2024-02-16T00:17:14;101247.47;;;6.14;66.14
84578;BME280;74803;44.756;19.218;2024-02-16T00:19:40;101250.72;;;6.04;66.30
84578;BME280;74803;44.756;19.218;2024-02-16T00:22:06;101257.34;;;5.96;67.00
84578;BME280;74803;44.756;19.218;2024-02-16T00:24:34;101245.13;;;6.11;66.58
84578;BME280;74803;44.756;19.218;2024-02-16T00:27:02;101254.09;;;5.81;67.60
84578;BME280;74803;44.756;19.218;2024-02-16T00:29:31;101253.75;;;5.62;67.79
84578;BME280;74803;44.756;19.218;2024-02-16T00:31:56;101248.69;;;5.60;68.75
84578;BME280;74803;44.756;19.218;2024-02-16T00:34:22;101261.50;;;5.49;68.60
84578;BME280;74803;44.756;19.218;2024-02-16T00:36:47;101253.66;;;5.51;67.86
84578;BME280;74803;44.756;19.218;2024-02-16T00:39:14;101252.16;;;5.36;68.39
84578;BME280;74803;44.756;19.218;2024-02-16T00:41:39;101245.16;;;5.25;69.35
84578;BME280;74803;44.756;19.218;2024-02-16T00:44:05;101248.97;;;5.19;69.27
84578;BME280;74803;44.756;19.218;2024-02-16T00:46:30;101243.72;;;5.08;69.31
84578;BME280;74803;44.756;19.218;2024-02-16T00:48:57;101242.41;;;5.03;69.56
84578;BME280;74803;44.756;19.218;2024-02-16T00:51:22;101241.44;;;5.04;69.96
84578;BME280;74803;44.756;19.218;2024-02-16T00:53:51;101243.22;;;4.91;70.28
84578;BME280;74803;44.756;19.218;2024-02-16T00:56:16;101236.84;;;4.71;70.33
84578;BME280;74803;44.756;19.218;2024-02-16T00:58:41;101241.38;;;4.67;70.49
84578;BME280;74803;44.756;19.218;2024-02-16T01:01:10;101237.84;;;4.56;70.63
84578;BME280;74803;44.756;19.218;2024-02-16T01:03:37;101236.53;;;4.63;71.43
84578;BME280;74803;44.756;19.218;2024-02-16T01:06:03;101230.66;;;4.61;71.51
84578;BME280;74803;44.756;19.218;2024-02-16T01:08:31;101233.97;;;4.63;71.64
84578;BME280;74803;44.756;19.218;2024-02-16T01:10:56;101225.59;;;4.59;72.13
84578;BME280;74803;44.756;19.218;2024-02-16T01:13:21;101227.97;;;4.75;71.82
84578;BME280;74803;44.756;19.218;2024-02-16T01:15:47;101224.47;;;4.76;71.81
84578;BME280;74803;44.756;19.218;2024-02-16T01:18:12;101220.78;;;4.80;71.07
84578;BME280;74803;44.756;19.218;2024-02-16T01:20:38;101223.66;;;4.75;71.45
84578;BME280;74803;44.756;19.218;2024-02-16T01:23:04;101224.69;;;4.73;71.18
84578;BME280;74803;44.756;19.218;2024-02-16T01:25:30;101221.81;;;4.77;71.13
84578;BME280;74803;44.756;19.218;2024-02-16T01:27:56;101219.34;;;4.76;71.18
84578;BME280;74803;44.756;19.218;2024-02-16T01:30:21;101210.25;;;4.70;71.48
84578;BME280;74803;44.756;19.218;2024-02-16T01:32:47;101215.41;;;4.70;71.04
84578;BME280;74803;44.756;19.218;2024-02-16T01:35:12;101219.72;;;4.70;71.47
84578;BME280;74803;44.756;19.218;2024-02-16T01:37:40;101214.06;;;4.65;71.82
84578;BME280;74803;44.756;19.218;2024-02-16T01:40:06;101205.66;;;4.63;72.21
84578;BME280;74803;44.756;19.218;2024-02-16T01:42:32;101208.31;;;4.74;71.96
84578;BME280;74803;44.756;19.218;2024-02-16T01:44:57;101211.69;;;4.74;71.77
84578;BME280;74803;44.756;19.218;2024-02-16T01:47:22;101210.88;;;4.74;71.42
84578;BME280;74803;44.756;19.218;2024-02-16T01:49:48;101204.28;;;4.70;71.62
84578;BME280;74803;44.756;19.218;2024-02-16T01:52:13;101206.25;;;4.54;71.57
84578;BME280;74803;44.756;19.218;2024-02-16T01:54:39;101210.47;;;4.42;72.57
84578;BME280;74803;44.756;19.218;2024-02-16T01:57:05;101203.34;;;4.33;72.76
84578;BME280;74803;44.756;19.218;2024-02-16T01:59:31;101202.75;;;4.42;72.00
84578;BME280;74803;44.756;19.218;2024-02-16T02:01:59;101198.13;;;4.47;72.42
84578;BME280;74803;44.756;19.218;2024-02-16T02:04:25;101200.16;;;4.42;71.38
84578;BME280;74803;44.756;19.218;2024-02-16T02:06:51;101190.88;;;4.27;72.95
84578;BME280;74803;44.756;19.218;2024-02-16T02:09:16;101189.06;;;4.29;72.15
84578;BME280;74803;44.756;19.218;2024-02-16T02:11:41;101190.13;;;4.12;72.44
84578;BME280;74803;44.756;19.218;2024-02-16T02:14:07;101187.25;;;4.17;73.09
84578;BME280;74803;44.756;19.218;2024-02-16T02:16:32;101175.16;;;4.31;71.89
84578;BME280;74803;44.756;19.218;2024-02-16T02:18:58;101185.53;;;4.17;71.85
84578;BME280;74803;44.756;19.218;2024-02-16T02:21:23;101178.72;;;4.16;71.76
84578;BME280;74803;44.756;19.218;2024-02-16T02:23:48;101182.94;;;4.17;71.55
84578;BME280;74803;44.756;19.218;2024-02-16T02:26:14;101186.66;;;4.13;72.60
84578;BME280;74803;44.756;19.218;2024-02-16T02:28:42;101183.22;;;4.00;71.94
84578;BME280;74803;44.756;19.218;2024-02-16T02:31:07;101178.28;;;3.97;72.32
84578;BME280;74803;44.756;19.218;2024-02-16T02:33:34;101180.47;;;4.16;72.61
84578;BME280;74803;44.756;19.218;2024-02-16T02:35:59;101178.28;;;3.97;72.21
84578;BME280;74803;44.756;19.218;2024-02-16T02:38:25;101169.03;;;4.07;72.71
84578;BME280;74803;44.756;19.218;2024-02-16T02:40:51;101178.28;;;4.10;72.60
84578;BME280;74803;44.756;19.218;2024-02-16T02:43:16;101172.69;;;3.90;73.14
84578;BME280;74803;44.756;19.218;2024-02-16T02:45:43;101174.44;;;3.90;73.55
84578;BME280;74803;44.756;19.218;2024-02-16T02:48:09;101167.56;;;3.90;73.00
84578;BME280;74803;44.756;19.218;2024-02-16T02:50:34;101167.66;;;3.89;72.89
84578;BME280;74803;44.756;19.218;2024-02-16T02:53:00;101169.59;;;3.85;73.54
84578;BME280;74803;44.756;19.218;2024-02-16T02:55:25;101164.50;;;3.98;72.71
84578;BME280;74803;44.756;19.218;2024-02-16T02:57:52;101169.72;;;3.97;72.98
84578;BME280;74803;44.756;19.218;2024-02-16T03:00:17;101170.56;;;3.97;72.51
84578;BME280;74803;44.756;19.218;2024-02-16T03:02:42;101181.34;;;3.89;73.73
84578;BME280;74803;44.756;19.218;2024-02-16T03:05:09;101177.44;;;3.84;73.43
84578;BME280;74803;44.756;19.218;2024-02-16T03:07:36;101182.63;;;3.70;74.36
84578;BME280;74803;44.756;19.218;2024-02-16T03:10:01;101179.56;;;3.77;74.34
84578;BME280;74803;44.756;19.218;2024-02-16T03:12:28;101178.81;;;3.75;74.64
84578;BME280;74803;44.756;19.218;2024-02-16T03:14:53;101176.22;;;3.63;74.23
84578;BME280;74803;44.756;19.218;2024-02-16T03:17:19;101183.09;;;3.62;74.65
84578;BME280;74803;44.756;19.218;2024-02-16T03:19:44;101182.88;;;3.79;73.93
84578;BME280;74803;44.756;19.218;2024-02-16T03:22:10;101178.78;;;3.63;74.94
84578;BME280;74803;44.756;19.218;2024-02-16T03:24:35;101180.72;;;3.59;75.13
84578;BME280;74803;44.756;19.218;2024-02-16T03:27:01;101186.16;;;3.55;74.96
84578;BME280;74803;44.756;19.218;2024-02-16T03:29:27;101177.25;;;3.46;75.42
84578;BME280;74803;44.756;19.218;2024-02-16T03:31:52;101176.84;;;3.66;74.20
84578;BME280;74803;44.756;19.218;2024-02-16T03:34:17;101171.38;;;3.58;74.34
84578;BME280;74803;44.756;19.218;2024-02-16T03:36:43;101174.50;;;3.76;73.65
84578;BME280;74803;44.756;19.218;2024-02-16T03:39:09;101171.31;;;3.72;73.78
84578;BME280;74803;44.756;19.218;2024-02-16T03:41:35;101171.06;;;3.63;73.71
84578;BME280;74803;44.756;19.218;2024-02-16T03:44:00;101174.66;;;3.60;73.63
84578;BME280;74803;44.756;19.218;2024-02-16T03:46:26;101183.88;;;3.50;74.44
84578;BME280;74803;44.756;19.218;2024-02-16T03:48:52;101173.84;;;3.60;73.47
84578;BME280;74803;44.756;19.218;2024-02-16T03:51:17;101187.91;;;3.54;73.94
84578;BME280;74803;44.756;19.218;2024-02-16T03:53:43;101183.94;;;3.75;73.17
84578;BME280;74803;44.756;19.218;2024-02-16T03:56:10;101182.81;;;3.67;73.01
84578;BME280;74803;44.756;19.218;2024-02-16T03:58:36;101184.53;;;3.66;73.43
84578;BME280;74803;44.756;19.218;2024-02-16T04:01:01;101190.81;;;3.62;73.93
84578;BME280;74803;44.756;19.218;2024-02-16T04:03:27;101187.16;;;3.52;73.74
84578;BME280;74803;44.756;19.218;2024-02-16T04:05:52;101186.53;;;3.48;74.12
84578;BME280;74803;44.756;19.218;2024-02-16T04:08:18;101183.59;;;3.55;74.12
84578;BME280;74803;44.756;19.218;2024-02-16T04:10:45;101189.81;;;3.51;74.23
84578;BME280;74803;44.756;19.218;2024-02-16T04:13:10;101189.00;;;3.50;74.47
84578;BME280;74803;44.756;19.218;2024-02-16T04:15:35;101184.50;;;3.54;73.53
84578;BME280;74803;44.756;19.218;2024-02-16T04:18:01;101189.28;;;3.45;73.99
84578;BME280;74803;44.756;19.218;2024-02-16T04:20:26;101189.38;;;3.44;74.40
84578;BME280;74803;44.756;19.218;2024-02-16T04:22:52;101188.19;;;3.50;73.79
84578;BME280;74803;44.756;19.218;2024-02-16T04:25:17;101194.63;;;3.42;73.85
84578;BME280;74803;44.756;19.218;2024-02-16T04:27:43;101187.13;;;3.25;74.36
84578;BME280;74803;44.756;19.218;2024-02-16T04:30:08;101195.94;;;3.35;74.32
84578;BME280;74803;44.756;19.218;2024-02-16T04:32:34;101183.59;;;3.40;74.18
84578;BME280;74803;44.756;19.218;2024-02-16T04:34:59;101189.09;;;3.48;73.73
84578;BME280;74803;44.756;19.218;2024-02-16T04:37:26;101187.31;;;3.22;74.37
84578;BME280;74803;44.756;19.218;2024-02-16T04:39:51;101183.91;;;3.22;74.24
84578;BME280;74803;44.756;19.218;2024-02-16T04:42:17;101186.69;;;3.19;73.68
84578;BME280;74803;44.756;19.218;2024-02-16T04:44:43;101190.25;;;3.30;73.80
84578;BME280;74803;44.756;19.218;2024-02-16T04:47:08;101187.88;;;3.13;74.38
84578;BME280;74803;44.756;19.218;2024-02-16T04:49:34;101190.94;;;3.06;74.31
84578;BME280;74803;44.756;19.218;2024-02-16T04:52:00;101191.56;;;3.09;74.57
84578;BME280;74803;44.756;19.218;2024-02-16T04:54:25;101187.50;;;3.19;74.25
84578;BME280;74803;44.756;19.218;2024-02-16T04:56:51;101190.81;;;3.07;74.50
84578;BME280;74803;44.756;19.218;2024-02-16T04:59:16;101186.22;;;3.12;74.15
84578;BME280;74803;44.756;19.218;2024-02-16T05:01:45;101189.22;;;3.33;74.18
84578;BME280;74803;44.756;19.218;2024-02-16T05:04:11;101191.72;;;3.34;74.12
84578;BME280;74803;44.756;19.218;2024-02-16T05:06:44;101184.81;;;3.21;74.14
84578;BME280;74803;44.756;19.218;2024-02-16T05:09:12;101189.97;;;3.21;73.69
84578;BME280;74803;44.756;19.218;2024-02-16T05:11:42;101184.94;;;3.19;74.54
84578;BME280;74803;44.756;19.218;2024-02-16T05:14:07;101186.78;;;3.03;74.17
84578;BME280;74803;44.756;19.218;2024-02-16T05:16:33;101190.91;;;3.20;73.41
84578;BME280;74803;44.756;19.218;2024-02-16T05:18:58;101189.69;;;3.11;74.34
84578;BME280;74803;44.756;19.218;2024-02-16T05:21:24;101192.91;;;2.86;75.41
84578;BME280;74803;44.756;19.218;2024-02-16T05:23:49;101189.28;;;2.76;75.47
84578;BME280;74803;44.756;19.218;2024-02-16T05:26:15;101193.88;;;2.71;77.04
84578;BME280;74803;44.756;19.218;2024-02-16T05:28:40;101195.13;;;2.92;77.06
84578;BME280;74803;44.756;19.218;2024-02-16T05:31:16;101191.09;;;3.02;77.50
84578;BME280;74803;44.756;19.218;2024-02-16T05:33:47;101193.75;;;3.15;77.03
84578;BME280;74803;44.756;19.218;2024-02-16T05:36:16;101202.94;;;3.05;77.37
84578;BME280;74803;44.756;19.218;2024-02-16T05:38:41;101204.56;;;2.92;76.79
84578;BME280;74803;44.756;19.218;2024-02-16T05:41:08;101205.13;;;2.97;77.74
84578;BME280;74803;44.756;19.218;2024-02-16T05:43:34;101214.41;;;2.85;77.30
84578;BME280;74803;44.756;19.218;2024-02-16T05:45:59;101209.06;;;3.02;77.57
84578;BME280;74803;44.756;19.218;2024-02-16T05:48:25;101220.25;;;3.01;77.53
84578;BME280;74803;44.756;19.218;2024-02-16T05:50:52;101214.94;;;3.19;76.58
84578;BME280;74803;44.756;19.218;2024-02-16T05:53:17;101221.25;;;3.27;75.75
84578;BME280;74803;44.756;19.218;2024-02-16T05:55:44;101222.00;;;3.15;76.60
84578;BME280;74803;44.756;19.218;2024-02-16T05:58:10;101227.13;;;3.01;77.04
84578;BME280;74803;44.756;19.218;2024-02-16T06:00:36;101223.91;;;2.97;77.08
84578;BME280;74803;44.756;19.218;2024-02-16T06:03:01;101236.94;;;3.09;77.00
84578;BME280;74803;44.756;19.218;2024-02-16T06:05:27;101234.44;;;3.21;77.05
84578;BME280;74803;44.756;19.218;2024-02-16T06:07:53;101233.53;;;3.22;76.43
84578;BME280;74803;44.756;19.218;2024-02-16T06:10:19;101235.75;;;3.28;75.92
84578;BME280;74803;44.756;19.218;2024-02-16T06:12:45;101239.59;;;3.35;74.93
84578;BME280;74803;44.756;19.218;2024-02-16T06:15:10;101236.63;;;3.41;75.41
84578;BME280;74803;44.756;19.218;2024-02-16T06:17:36;101231.22;;;3.32;75.69
84578;BME280;74803;44.756;19.218;2024-02-16T06:20:02;101230.53;;;3.30;75.32
84578;BME280;74803;44.756;19.218;2024-02-16T06:22:29;101224.97;;;3.36;75.33
84578;BME280;74803;44.756;19.218;2024-02-16T06:24:57;101236.19;;;3.49;75.46
84578;BME280;74803;44.756;19.218;2024-02-16T06:27:22;101240.66;;;3.60;74.70
84578;BME280;74803;44.756;19.218;2024-02-16T06:29:49;101236.00;;;3.79;74.66
84578;BME280;74803;44.756;19.218;2024-02-16T06:32:14;101232.66;;;3.91;74.04
84578;BME280;74803;44.756;19.218;2024-02-16T06:34:42;101232.94;;;3.86;74.22
84578;BME280;74803;44.756;19.218;2024-02-16T06:37:08;101244.28;;;3.97;73.75
84578;BME280;74803;44.756;19.218;2024-02-16T06:39:33;101239.63;;;4.16;72.87
84578;BME280;74803;44.756;19.218;2024-02-16T06:41:59;101240.69;;;4.26;71.71
84578;BME280;74803;44.756;19.218;2024-02-16T06:44:25;101243.81;;;4.44;71.50
84578;BME280;74803;44.756;19.218;2024-02-16T06:46:51;101240.00;;;4.49;71.67
84578;BME280;74803;44.756;19.218;2024-02-16T06:49:16;101252.59;;;4.54;71.34
84578;BME280;74803;44.756;19.218;2024-02-16T06:51:42;101249.88;;;4.55;71.65
84578;BME280;74803;44.756;19.218;2024-02-16T06:54:07;101252.81;;;4.63;70.77
84578;BME280;74803;44.756;19.218;2024-02-16T06:56:33;101262.97;;;4.65;70.84
84578;BME280;74803;44.756;19.218;2024-02-16T06:58:58;101267.75;;;4.96;69.67
84578;BME280;74803;44.756;19.218;2024-02-16T07:01:24;101260.72;;;5.11;69.21
84578;BME280;74803;44.756;19.218;2024-02-16T07:03:52;101257.75;;;5.17;69.72
84578;BME280;74803;44.756;19.218;2024-02-16T07:06:19;101262.97;;;5.41;68.36
84578;BME280;74803;44.756;19.218;2024-02-16T07:08:45;101264.22;;;5.10;68.69
84578;BME280;74803;44.756;19.218;2024-02-16T07:11:11;101261.84;;;5.32;69.08
84578;BME280;74803;44.756;19.218;2024-02-16T07:13:41;101262.78;;;5.18;69.28
84578;BME280;74803;44.756;19.218;2024-02-16T07:16:07;101262.72;;;5.56;68.86
84578;BME280;74803;44.756;19.218;2024-02-16T07:18:33;101265.56;;;5.64;69.03
84578;BME280;74803;44.756;19.218;2024-02-16T07:20:58;101269.81;;;5.53;68.61
84578;BME280;74803;44.756;19.218;2024-02-16T07:23:25;101264.56;;;5.54;68.99
84578;BME280;74803;44.756;19.218;2024-02-16T07:25:50;101269.22;;;5.62;68.54
84578;BME280;74803;44.756;19.218;2024-02-16T07:28:16;101266.56;;;5.75;68.25
84578;BME280;74803;44.756;19.218;2024-02-16T07:30:41;101272.97;;;5.82;67.76
84578;BME280;74803;44.756;19.218;2024-02-16T07:33:07;101263.22;;;5.98;67.71
84578;BME280;74803;44.756;19.218;2024-02-16T07:35:33;101262.06;;;6.02;67.49
84578;BME280;74803;44.756;19.218;2024-02-16T07:38:00;101263.16;;;6.34;66.64
84578;BME280;74803;44.756;19.218;2024-02-16T07:40:25;101267.97;;;6.39;66.26
84578;BME280;74803;44.756;19.218;2024-02-16T07:42:51;101260.97;;;6.52;66.13
84578;BME280;74803;44.756;19.218;2024-02-16T07:45:20;101250.78;;;6.62;65.54
84578;BME280;74803;44.756;19.218;2024-02-16T07:47:46;101249.03;;;6.73;65.71
84578;BME280;74803;44.756;19.218;2024-02-16T07:50:11;101248.66;;;6.67;65.42
84578;BME280;74803;44.756;19.218;2024-02-16T07:52:37;101255.97;;;6.73;66.14
84578;BME280;74803;44.756;19.218;2024-02-16T07:55:04;101259.06;;;6.89;64.78
84578;BME280;74803;44.756;19.218;2024-02-16T07:57:29;101252.47;;;6.96;65.20
84578;BME280;74803;44.756;19.218;2024-02-16T07:59:56;101253.31;;;7.19;64.92
84578;BME280;74803;44.756;19.218;2024-02-16T08:02:21;101259.53;;;7.27;64.93
84578;BME280;74803;44.756;19.218;2024-02-16T08:04:47;101255.66;;;7.44;63.68
84578;BME280;74803;44.756;19.218;2024-02-16T08:07:13;101254.97;;;7.85;63.56
84578;BME280;74803;44.756;19.218;2024-02-16T08:09:38;101260.59;;;7.90;62.99
84578;BME280;74803;44.756;19.218;2024-02-16T08:12:04;101259.06;;;8.31;61.90
84578;BME280;74803;44.756;19.218;2024-02-16T08:14:34;101256.00;;;8.57;62.38
84578;BME280;74803;44.756;19.218;2024-02-16T08:17:00;101262.97;;;8.57;61.68
84578;BME280;74803;44.756;19.218;2024-02-16T08:19:34;101262.06;;;8.68;61.83
84578;BME280;74803;44.756;19.218;2024-02-16T08:22:01;101260.69;;;8.43;62.84
84578;BME280;74803;44.756;19.218;2024-02-16T08:24:28;101263.00;;;8.87;60.54
84578;BME280;74803;44.756;19.218;2024-02-16T08:26:54;101255.41;;;8.54;60.68
84578;BME280;74803;44.756;19.218;2024-02-16T08:29:19;101262.03;;;9.19;60.79
84578;BME280;74803;44.756;19.218;2024-02-16T08:31:47;101263.00;;;9.58;59.09
84578;BME280;74803;44.756;19.218;2024-02-16T08:34:14;101262.75;;;9.61;59.76
84578;BME280;74803;44.756;19.218;2024-02-16T08:36:44;101264.50;;;10.19;58.30
84578;BME280;74803;44.756;19.218;2024-02-16T08:39:09;101265.56;;;10.46;56.26
84578;BME280;74803;44.756;19.218;2024-02-16T08:41:37;101258.75;;;10.35;56.39
84578;BME280;74803;44.756;19.218;2024-02-16T08:44:02;101251.34;;;10.59;57.10
84578;BME280;74803;44.756;19.218;2024-02-16T08:46:28;101256.38;;;11.07;55.82
84578;BME280;74803;44.756;19.218;2024-02-16T08:48:54;101253.13;;;11.33;55.97
84578;BME280;74803;44.756;19.218;2024-02-16T08:51:20;101254.56;;;11.45;55.00
84578;BME280;74803;44.756;19.218;2024-02-16T08:53:45;101255.38;;;11.45;54.80
84578;BME280;74803;44.756;19.218;2024-02-16T08:56:11;101256.00;;;11.02;55.02
84578;BME280;74803;44.756;19.218;2024-02-16T08:58:37;101252.59;;;11.56;54.62
84578;BME280;74803;44.756;19.218;2024-02-16T09:01:02;101256.03;;;11.30;54.57
84578;BME280;74803;44.756;19.218;2024-02-16T09:03:29;101255.28;;;11.74;53.95
84578;BME280;74803;44.756;19.218;2024-02-16T09:05:54;101258.09;;;11.81;53.35
84578;BME280;74803;44.756;19.218;2024-02-16T09:08:20;101252.50;;;12.29;52.41
84578;BME280;74803;44.756;19.218;2024-02-16T09:10:45;101245.06;;;12.34;51.84
84578;BME280;74803;44.756;19.218;2024-02-16T09:13:11;101244.06;;;12.78;51.84
84578;BME280;74803;44.756;19.218;2024-02-16T09:15:37;101250.81;;;13.15;49.22
84578;BME280;74803;44.756;19.218;2024-02-16T09:18:03;101249.88;;;14.87;45.73
84578;BME280;74803;44.756;19.218;2024-02-16T09:20:28;101246.97;;;15.68;43.13
84578;BME280;74803;44.756;19.218;2024-02-16T09:22:54;101241.38;;;17.06;40.41
84578;BME280;74803;44.756;19.218;2024-02-16T09:25:19;101242.31;;;17.85;38.34
84578;BME280;74803;44.756;19.218;2024-02-16T09:27:46;101247.22;;;18.59;37.65
84578;BME280;74803;44.756;19.218;2024-02-16T09:30:12;101242.91;;;19.26;36.34
84578;BME280;74803;44.756;19.218;2024-02-16T09:32:40;101240.44;;;19.66;35.31
84578;BME280;74803;44.756;19.218;2024-02-16T09:35:07;101240.28;;;19.94;34.83
84578;BME280;74803;44.756;19.218;2024-02-16T09:37:34;101245.69;;;18.00;37.91
84578;BME280;74803;44.756;19.218;2024-02-16T09:40:01;101244.72;;;17.87;38.49
84578;BME280;74803;44.756;19.218;2024-02-16T09:42:29;101250.41;;;19.23;36.82
84578;BME280;74803;44.756;19.218;2024-02-16T09:44:57;101239.69;;;20.24;34.32
84578;BME280;74803;44.756;19.218;2024-02-16T09:47:24;101250.66;;;20.67;33.06
84578;BME280;74803;44.756;19.218;2024-02-16T09:49:51;101243.53;;;20.81;33.32
84578;BME280;74803;44.756;19.218;2024-02-16T09:52:16;101240.13;;;20.35;33.92
84578;BME280;74803;44.756;19.218;2024-02-16T09:54:43;101239.31;;;20.34;34.21
84578;BME280;74803;44.756;19.218;2024-02-16T09:57:08;101243.13;;;20.84;33.71
84578;BME280;74803;44.756;19.218;2024-02-16T09:59:36;101240.91;;;21.39;31.94
84578;BME280;74803;44.756;19.218;2024-02-16T10:02:02;101240.38;;;21.24;32.93
84578;BME280;74803;44.756;19.218;2024-02-16T10:04:27;101245.13;;;21.46;32.40
84578;BME280;74803;44.756;19.218;2024-02-16T10:06:53;101242.13;;;21.36;32.79
84578;BME280;74803;44.756;19.218;2024-02-16T10:09:22;101232.75;;;20.89;33.21
84578;BME280;74803;44.756;19.218;2024-02-16T10:11:54;101238.97;;;19.03;36.51
84578;BME280;74803;44.756;19.218;2024-02-16T10:14:21;101235.44;;;20.43;35.05
84578;BME280;74803;44.756;19.218;2024-02-16T10:16:47;101224.09;;;20.36;34.49
84578;BME280;74803;44.756;19.218;2024-02-16T10:19:13;101220.72;;;20.93;33.77
84578;BME280;74803;44.756;19.218;2024-02-16T10:21:39;101218.44;;;21.17;33.49
84578;BME280;74803;44.756;19.218;2024-02-16T10:24:09;101213.88;;;21.37;32.54
84578;BME280;74803;44.756;19.218;2024-02-16T10:26:35;101206.63;;;21.26;33.19
84578;BME280;74803;44.756;19.218;2024-02-16T10:29:04;101209.88;;;21.66;32.27
84578;BME280;74803;44.756;19.218;2024-02-16T10:31:30;101204.75;;;21.71;31.83
84578;BME280;74803;44.756;19.218;2024-02-16T10:33:57;101205.66;;;21.14;32.92
84578;BME280;74803;44.756;19.218;2024-02-16T10:36:25;101202.09;;;21.71;32.01
84578;BME280;74803;44.756;19.218;2024-02-16T10:38:51;101196.31;;;21.04;32.76
84578;BME280;74803;44.756;19.218;2024-02-16T10:41:16;101193.13;;;21.40;32.71
84578;BME280;74803;44.756;19.218;2024-02-16T10:43:44;101192.75;;;20.86;33.28
84578;BME280;74803;44.756;19.218;2024-02-16T10:46:12;101192.72;;;21.37;31.66
84578;BME280;74803;44.756;19.218;2024-02-16T10:48:39;101193.06;;;21.85;31.69
84578;BME280;74803;44.756;19.218;2024-02-16T10:51:05;101186.31;;;21.26;31.47
84578;BME280;74803;44.756;19.218;2024-02-16T10:53:32;101182.88;;;21.19;32.78
84578;BME280;74803;44.756;19.218;2024-02-16T10:56:00;101178.59;;;21.81;31.68
84578;BME280;74803;44.756;19.218;2024-02-16T10:58:29;101179.91;;;22.03;30.04
84578;BME280;74803;44.756;19.218;2024-02-16T11:00:56;101171.53;;;21.05;32.12
84578;BME280;74803;44.756;19.218;2024-02-16T11:03:22;101172.09;;;20.43;33.08
84578;BME280;74803;44.756;19.218;2024-02-16T11:05:53;101170.06;;;21.09;33.23
84578;BME280;74803;44.756;19.218;2024-02-16T11:08:20;101164.00;;;20.25;33.70
84578;BME280;74803;44.756;19.218;2024-02-16T11:10:59;101161.88;;;21.87;31.54
84578;BME280;74803;44.756;19.218;2024-02-16T11:13:25;101153.81;;;20.55;33.39
84578;BME280;74803;44.756;19.218;2024-02-16T11:15:58;101159.16;;;22.25;30.87
84578;BME280;74803;44.756;19.218;2024-02-16T11:18:25;101156.16;;;22.39;30.29
84578;BME280;74803;44.756;19.218;2024-02-16T11:20:51;101157.41;;;22.92;29.37
84578;BME280;74803;44.756;19.218;2024-02-16T11:23:17;101146.38;;;22.76;29.47
84578;BME280;74803;44.756;19.218;2024-02-16T11:25:50;101157.22;;;22.14;30.36
84578;BME280;74803;44.756;19.218;2024-02-16T11:28:16;101146.34;;;22.40;29.45
84578;BME280;74803;44.756;19.218;2024-02-16T11:30:44;101143.13;;;22.74;28.71
84578;BME280;74803;44.756;19.218;2024-02-16T11:33:10;101142.94;;;22.76;28.84
84578;BME280;74803;44.756;19.218;2024-02-16T11:35:35;101140.50;;;23.52;28.30
84578;BME280;74803;44.756;19.218;2024-02-16T11:38:01;101133.44;;;23.16;28.60
84578;BME280;74803;44.756;19.218;2024-02-16T11:40:28;101136.59;;;24.60;27.24
84578;BME280;74803;44.756;19.218;2024-02-16T11:42:59;101129.16;;;23.45;27.09
84578;BME280;74803;44.756;19.218;2024-02-16T11:45:24;101134.31;;;23.29;28.47
84578;BME280;74803;44.756;19.218;2024-02-16T11:47:50;101122.50;;;23.24;28.30
84578;BME280;74803;44.756;19.218;2024-02-16T11:50:17;101119.28;;;23.64;27.58
84578;BME280;74803;44.756;19.218;2024-02-16T11:52:43;101120.59;;;22.65;28.07
84578;BME280;74803;44.756;19.218;2024-02-16T11:55:09;101111.69;;;23.67;27.42
84578;BME280;74803;44.756;19.218;2024-02-16T11:57:35;101109.03;;;24.89;26.08
84578;BME280;74803;44.756;19.218;2024-02-16T12:00:02;101108.09;;;24.08;27.42
84578;BME280;74803;44.756;19.218;2024-02-16T12:02:32;101114.31;;;25.62;25.82
84578;BME280;74803;44.756;19.218;2024-02-16T12:04:58;101110.53;;;24.85;26.02
84578;BME280;74803;44.756;19.218;2024-02-16T12:07:25;101114.41;;;25.22;26.10
84578;BME280;74803;44.756;19.218;2024-02-16T12:10:00;101112.72;;;23.66;27.85
84578;BME280;74803;44.756;19.218;2024-02-16T12:12:30;101110.69;;;24.27;26.63
84578;BME280;74803;44.756;19.218;2024-02-16T12:14:58;101111.75;;;25.67;24.91
84578;BME280;74803;44.756;19.218;2024-02-16T12:17:23;101108.47;;;24.35;25.69
84578;BME280;74803;44.756;19.218;2024-02-16T12:19:49;101105.56;;;24.88;25.40
84578;BME280;74803;44.756;19.218;2024-02-16T12:22:19;101101.06;;;24.77;25.21
84578;BME280;74803;44.756;19.218;2024-02-16T12:24:45;101096.31;;;26.03;24.50
84578;BME280;74803;44.756;19.218;2024-02-16T12:27:11;101097.00;;;27.02;23.15
84578;BME280;74803;44.756;19.218;2024-02-16T12:29:36;101089.22;;;26.74;23.33
84578;BME280;74803;44.756;19.218;2024-02-16T12:32:02;101084.72;;;24.57;25.54
84578;BME280;74803;44.756;19.218;2024-02-16T12:34:27;101086.75;;;27.47;22.13
84578;BME280;74803;44.756;19.218;2024-02-16T12:36:53;101086.34;;;27.02;23.09
84578;BME280;74803;44.756;19.218;2024-02-16T12:39:18;101075.09;;;27.27;22.34
84578;BME280;74803;44.756;19.218;2024-02-16T12:41:46;101079.34;;;26.74;22.13